sensor_id;sensor_type;location;lat;lon;timestamp;P1;durP1;ratioP1;P2;durP2;ratioP2
4839;SDS011;2434;48.486;7.964;2023-02-01T00:01:21;12.00;;;8.57;;
4839;SDS011;2434;48.486;7.964;2023-02-01T00:03:49;11.93;;;9.10;;
4839;SDS011;2434;48.486;7.964;2023-02-01T00:06:19;12.90;;;8.70;;
4839;SDS011;2434;48.486;7.964;2023-02-01T00:08:47;13.77;;;9.70;;
4839;SDS011;2434;48.486;7.964;2023-02-01T00:11:16;13.30;;;9.50;;
4839;SDS011;2434;48.486;7.964;2023-02-01T00:13:44;14.57;;;9.50;;
4839;SDS011;2434;48.486;7.964;2023-02-01T00:16:13;12.37;;;9.23;;
4839;SDS011;2434;48.486;7.964;2023-02-01T00:18:44;12.53;;;8.80;;
4839;SDS011;2434;48.486;7.964;2023-02-01T00:21:12;17.87;;;11.00;;
4839;SDS011;2434;48.486;7.964;2023-02-01T00:23:43;14.00;;;9.90;;
4839;SDS011;2434;48.486;7.964;2023-02-01T00:26:13;12.87;;;8.50;;
4839;SDS011;2434;48.486;7.964;2023-02-01T00:28:43;14.50;;;8.80;;
4839;SDS011;2434;48.486;7.964;2023-02-01T00:31:11;12.93;;;9.30;;
4839;SDS011;2434;48.486;7.964;2023-02-01T00:33:40;13.47;;;8.67;;
4839;SDS011;2434;48.486;7.964;2023-02-01T00:36:08;14.40;;;9.90;;
4839;SDS011;2434;48.486;7.964;2023-02-01T00:38:37;11.30;;;9.10;;
4839;SDS011;2434;48.486;7.964;2023-02-01T00:41:09;14.30;;;9.43;;
4839;SDS011;2434;48.486;7.964;2023-02-01T00:43:39;13.87;;;9.10;;
4839;SDS011;2434;48.486;7.964;2023-02-01T00:46:08;15.37;;;9.80;;
4839;SDS011;2434;48.486;7.964;2023-02-01T00:48:37;13.30;;;9.40;;
4839;SDS011;2434;48.486;7.964;2023-02-01T00:51:06;12.43;;;8.40;;
4839;SDS011;2434;48.486;7.964;2023-02-01T00:53:36;14.30;;;8.00;;
4839;SDS011;2434;48.486;7.964;2023-02-01T00:56:05;13.30;;;9.00;;
4839;SDS011;2434;48.486;7.964;2023-02-01T00:58:34;12.13;;;7.97;;
4839;SDS011;2434;48.486;7.964;2023-02-01T01:01:04;12.67;;;8.50;;
4839;SDS011;2434;48.486;7.964;2023-02-01T01:03:34;14.33;;;8.30;;
4839;SDS011;2434;48.486;7.964;2023-02-01T01:06:07;11.77;;;7.73;;
4839;SDS011;2434;48.486;7.964;2023-02-01T01:08:38;12.20;;;8.27;;
4839;SDS011;2434;48.486;7.964;2023-02-01T01:11:09;9.60;;;7.30;;
4839;SDS011;2434;48.486;7.964;2023-02-01T01:13:40;15.53;;;7.40;;
4839;SDS011;2434;48.486;7.964;2023-02-01T01:16:09;12.70;;;8.10;;
4839;SDS011;2434;48.486;7.964;2023-02-01T01:18:38;11.87;;;7.70;;
4839;SDS011;2434;48.486;7.964;2023-02-01T01:21:08;12.40;;;7.67;;
4839;SDS011;2434;48.486;7.964;2023-02-01T01:23:39;10.10;;;7.20;;
4839;SDS011;2434;48.486;7.964;2023-02-01T01:26:14;17.87;;;8.00;;
4839;SDS011;2434;48.486;7.964;2023-02-01T01:28:44;10.00;;;6.70;;
4839;SDS011;2434;48.486;7.964;2023-02-01T01:31:14;11.63;;;8.20;;
4839;SDS011;2434;48.486;7.964;2023-02-01T01:33:47;13.87;;;8.40;;
4839;SDS011;2434;48.486;7.964;2023-02-01T01:36:16;12.97;;;7.67;;
4839;SDS011;2434;48.486;7.964;2023-02-01T01:38:44;11.70;;;7.90;;
4839;SDS011;2434;48.486;7.964;2023-02-01T01:41:16;10.17;;;6.80;;
4839;SDS011;2434;48.486;7.964;2023-02-01T01:43:50;9.63;;;6.47;;
4839;SDS011;2434;48.486;7.964;2023-02-01T01:46:22;8.33;;;6.53;;
4839;SDS011;2434;48.486;7.964;2023-02-01T01:48:55;16.80;;;7.40;;
4839;SDS011;2434;48.486;7.964;2023-02-01T01:51:27;9.33;;;6.70;;
4839;SDS011;2434;48.486;7.964;2023-02-01T01:53:59;8.57;;;6.70;;
4839;SDS011;2434;48.486;7.964;2023-02-01T01:56:31;10.13;;;7.00;;
4839;SDS011;2434;48.486;7.964;2023-02-01T01:59:02;9.27;;;6.70;;
4839;SDS011;2434;48.486;7.964;2023-02-01T02:01:32;9.43;;;7.13;;
4839;SDS011;2434;48.486;7.964;2023-02-01T02:04:00;9.83;;;6.87;;
4839;SDS011;2434;48.486;7.964;2023-02-01T02:06:40;9.40;;;7.13;;
4839;SDS011;2434;48.486;7.964;2023-02-01T02:09:14;9.67;;;7.40;;
4839;SDS011;2434;48.486;7.964;2023-02-01T02:11:44;9.00;;;6.20;;
4839;SDS011;2434;48.486;7.964;2023-02-01T02:14:13;9.97;;;6.93;;
4839;SDS011;2434;48.486;7.964;2023-02-01T02:16:47;9.63;;;6.90;;
4839;SDS011;2434;48.486;7.964;2023-02-01T02:19:32;12.00;;;6.83;;
4839;SDS011;2434;48.486;7.964;2023-02-01T02:22:25;10.40;;;7.10;;
4839;SDS011;2434;48.486;7.964;2023-02-01T02:25:20;11.43;;;6.77;;
4839;SDS011;2434;48.486;7.964;2023-02-01T02:28:09;9.20;;;7.10;;
4839;SDS011;2434;48.486;7.964;2023-02-01T02:30:50;10.50;;;7.00;;
4839;SDS011;2434;48.486;7.964;2023-02-01T02:33:42;11.43;;;7.37;;
4839;SDS011;2434;48.486;7.964;2023-02-01T02:36:21;10.87;;;6.40;;
4839;SDS011;2434;48.486;7.964;2023-02-01T02:39:02;15.13;;;7.60;;
4839;SDS011;2434;48.486;7.964;2023-02-01T02:41:38;12.63;;;6.87;;
4839;SDS011;2434;48.486;7.964;2023-02-01T02:44:34;9.33;;;6.90;;
4839;SDS011;2434;48.486;7.964;2023-02-01T02:47:25;9.80;;;6.60;;
4839;SDS011;2434;48.486;7.964;2023-02-01T02:50:04;8.17;;;6.30;;
4839;SDS011;2434;48.486;7.964;2023-02-01T02:52:57;10.30;;;6.80;;
4839;SDS011;2434;48.486;7.964;2023-02-01T02:55:49;8.00;;;6.03;;
4839;SDS011;2434;48.486;7.964;2023-02-01T02:58:19;8.93;;;5.80;;
4839;SDS011;2434;48.486;7.964;2023-02-01T03:01:06;8.77;;;6.17;;
4839;SDS011;2434;48.486;7.964;2023-02-01T03:03:52;8.77;;;6.50;;
4839;SDS011;2434;48.486;7.964;2023-02-01T03:06:40;15.20;;;5.93;;
4839;SDS011;2434;48.486;7.964;2023-02-01T03:09:11;8.80;;;6.47;;
4839;SDS011;2434;48.486;7.964;2023-02-01T03:11:43;7.23;;;5.60;;
4839;SDS011;2434;48.486;7.964;2023-02-01T03:14:34;7.87;;;5.80;;
4839;SDS011;2434;48.486;7.964;2023-02-01T03:17:06;13.50;;;6.67;;
4839;SDS011;2434;48.486;7.964;2023-02-01T03:19:40;10.20;;;5.80;;
4839;SDS011;2434;48.486;7.964;2023-02-01T03:22:18;6.93;;;5.60;;
4839;SDS011;2434;48.486;7.964;2023-02-01T03:24:51;8.13;;;5.67;;
4839;SDS011;2434;48.486;7.964;2023-02-01T03:27:22;8.77;;;5.80;;
4839;SDS011;2434;48.486;7.964;2023-02-01T03:29:56;14.13;;;5.87;;
4839;SDS011;2434;48.486;7.964;2023-02-01T03:32:30;10.30;;;5.33;;
4839;SDS011;2434;48.486;7.964;2023-02-01T03:35:18;8.13;;;5.70;;
4839;SDS011;2434;48.486;7.964;2023-02-01T03:37:53;7.67;;;5.80;;
4839;SDS011;2434;48.486;7.964;2023-02-01T03:40:27;7.23;;;5.27;;
4839;SDS011;2434;48.486;7.964;2023-02-01T03:43:00;8.47;;;5.57;;
4839;SDS011;2434;48.486;7.964;2023-02-01T03:45:33;10.13;;;4.67;;
4839;SDS011;2434;48.486;7.964;2023-02-01T03:48:07;8.90;;;5.83;;
4839;SDS011;2434;48.486;7.964;2023-02-01T03:50:38;7.43;;;5.10;;
4839;SDS011;2434;48.486;7.964;2023-02-01T03:53:13;7.03;;;5.13;;
4839;SDS011;2434;48.486;7.964;2023-02-01T03:55:45;6.80;;;4.77;;
4839;SDS011;2434;48.486;7.964;2023-02-01T03:58:15;7.20;;;5.37;;
4839;SDS011;2434;48.486;7.964;2023-02-01T04:00:46;6.50;;;5.27;;
4839;SDS011;2434;48.486;7.964;2023-02-01T04:03:19;6.50;;;4.10;;
4839;SDS011;2434;48.486;7.964;2023-02-01T04:05:49;8.43;;;4.90;;
4839;SDS011;2434;48.486;7.964;2023-02-01T04:08:22;6.13;;;4.13;;
4839;SDS011;2434;48.486;7.964;2023-02-01T04:10:51;4.00;;;3.30;;
4839;SDS011;2434;48.486;7.964;2023-02-01T04:13:19;7.30;;;3.37;;
4839;SDS011;2434;48.486;7.964;2023-02-01T04:15:48;4.50;;;3.60;;
4839;SDS011;2434;48.486;7.964;2023-02-01T04:18:17;5.33;;;3.00;;
4839;SDS011;2434;48.486;7.964;2023-02-01T04:20:45;4.13;;;3.27;;
4839;SDS011;2434;48.486;7.964;2023-02-01T04:23:13;7.03;;;4.00;;
4839;SDS011;2434;48.486;7.964;2023-02-01T04:25:43;5.40;;;3.83;;
4839;SDS011;2434;48.486;7.964;2023-02-01T04:28:12;3.43;;;2.60;;
4839;SDS011;2434;48.486;7.964;2023-02-01T04:30:40;5.03;;;3.33;;
4839;SDS011;2434;48.486;7.964;2023-02-01T04:33:08;4.80;;;3.47;;
4839;SDS011;2434;48.486;7.964;2023-02-01T04:35:40;4.03;;;2.80;;
4839;SDS011;2434;48.486;7.964;2023-02-01T04:38:08;5.23;;;3.27;;
4839;SDS011;2434;48.486;7.964;2023-02-01T04:40:36;5.87;;;3.80;;
4839;SDS011;2434;48.486;7.964;2023-02-01T04:43:06;5.07;;;3.70;;
4839;SDS011;2434;48.486;7.964;2023-02-01T04:45:34;4.20;;;2.90;;
4839;SDS011;2434;48.486;7.964;2023-02-01T04:48:03;5.90;;;3.17;;
4839;SDS011;2434;48.486;7.964;2023-02-01T04:50:32;4.87;;;3.00;;
4839;SDS011;2434;48.486;7.964;2023-02-01T04:53:00;3.37;;;2.70;;
4839;SDS011;2434;48.486;7.964;2023-02-01T04:55:28;5.47;;;3.20;;
4839;SDS011;2434;48.486;7.964;2023-02-01T04:57:57;3.20;;;2.90;;
4839;SDS011;2434;48.486;7.964;2023-02-01T05:00:26;3.60;;;2.50;;
4839;SDS011;2434;48.486;7.964;2023-02-01T05:02:55;4.97;;;3.10;;
4839;SDS011;2434;48.486;7.964;2023-02-01T05:05:23;4.30;;;2.60;;
4839;SDS011;2434;48.486;7.964;2023-02-01T05:07:51;5.20;;;2.93;;
4839;SDS011;2434;48.486;7.964;2023-02-01T05:10:20;7.00;;;3.20;;
4839;SDS011;2434;48.486;7.964;2023-02-01T05:12:49;5.40;;;3.43;;
4839;SDS011;2434;48.486;7.964;2023-02-01T05:15:36;3.47;;;2.63;;
4839;SDS011;2434;48.486;7.964;2023-02-01T05:18:04;3.30;;;3.00;;
4839;SDS011;2434;48.486;7.964;2023-02-01T05:20:33;4.90;;;3.57;;
4839;SDS011;2434;48.486;7.964;2023-02-01T05:23:01;4.43;;;3.03;;
4839;SDS011;2434;48.486;7.964;2023-02-01T05:25:30;6.27;;;3.60;;
4839;SDS011;2434;48.486;7.964;2023-02-01T05:27:58;3.80;;;3.40;;
4839;SDS011;2434;48.486;7.964;2023-02-01T05:30:26;8.40;;;3.07;;
4839;SDS011;2434;48.486;7.964;2023-02-01T05:32:56;3.70;;;3.20;;
4839;SDS011;2434;48.486;7.964;2023-02-01T05:35:24;3.97;;;2.90;;
4839;SDS011;2434;48.486;7.964;2023-02-01T05:37:52;4.07;;;2.73;;
4839;SDS011;2434;48.486;7.964;2023-02-01T05:40:20;5.77;;;3.27;;
4839;SDS011;2434;48.486;7.964;2023-02-01T05:42:49;5.07;;;3.37;;
4839;SDS011;2434;48.486;7.964;2023-02-01T05:45:18;6.57;;;3.50;;
4839;SDS011;2434;48.486;7.964;2023-02-01T05:47:46;4.33;;;3.40;;
4839;SDS011;2434;48.486;7.964;2023-02-01T05:50:16;5.67;;;3.37;;
4839;SDS011;2434;48.486;7.964;2023-02-01T05:52:54;4.40;;;3.63;;
4839;SDS011;2434;48.486;7.964;2023-02-01T05:55:22;6.13;;;3.40;;
4839;SDS011;2434;48.486;7.964;2023-02-01T05:57:50;4.97;;;4.03;;
4839;SDS011;2434;48.486;7.964;2023-02-01T06:00:19;4.90;;;3.50;;
4839;SDS011;2434;48.486;7.964;2023-02-01T06:02:48;4.60;;;3.77;;
4839;SDS011;2434;48.486;7.964;2023-02-01T06:05:17;5.07;;;3.50;;
4839;SDS011;2434;48.486;7.964;2023-02-01T06:07:46;4.57;;;3.07;;
4839;SDS011;2434;48.486;7.964;2023-02-01T06:10:14;5.60;;;3.30;;
4839;SDS011;2434;48.486;7.964;2023-02-01T06:12:43;6.10;;;3.60;;
4839;SDS011;2434;48.486;7.964;2023-02-01T06:15:11;5.77;;;4.13;;
4839;SDS011;2434;48.486;7.964;2023-02-01T06:17:42;6.23;;;3.73;;
4839;SDS011;2434;48.486;7.964;2023-02-01T06:20:12;4.30;;;3.60;;
4839;SDS011;2434;48.486;7.964;2023-02-01T06:22:43;5.03;;;3.60;;
4839;SDS011;2434;48.486;7.964;2023-02-01T06:25:11;6.53;;;3.53;;
4839;SDS011;2434;48.486;7.964;2023-02-01T06:27:40;6.63;;;4.20;;
4839;SDS011;2434;48.486;7.964;2023-02-01T06:30:08;7.00;;;3.80;;
4839;SDS011;2434;48.486;7.964;2023-02-01T06:32:42;8.80;;;4.07;;
4839;SDS011;2434;48.486;7.964;2023-02-01T06:35:11;5.70;;;4.40;;
4839;SDS011;2434;48.486;7.964;2023-02-01T06:37:43;3.70;;;2.93;;
4839;SDS011;2434;48.486;7.964;2023-02-01T06:40:12;7.10;;;4.10;;
4839;SDS011;2434;48.486;7.964;2023-02-01T06:42:40;7.40;;;3.67;;
4839;SDS011;2434;48.486;7.964;2023-02-01T06:45:09;6.37;;;5.13;;
4839;SDS011;2434;48.486;7.964;2023-02-01T06:47:37;5.27;;;3.93;;
4839;SDS011;2434;48.486;7.964;2023-02-01T06:50:06;6.50;;;3.63;;
4839;SDS011;2434;48.486;7.964;2023-02-01T06:52:35;6.73;;;3.40;;
4839;SDS011;2434;48.486;7.964;2023-02-01T06:55:06;6.60;;;4.10;;
4839;SDS011;2434;48.486;7.964;2023-02-01T06:57:34;4.50;;;3.87;;
4839;SDS011;2434;48.486;7.964;2023-02-01T07:00:03;4.70;;;3.50;;
4839;SDS011;2434;48.486;7.964;2023-02-01T07:02:32;4.77;;;3.20;;
4839;SDS011;2434;48.486;7.964;2023-02-01T07:05:01;4.27;;;3.63;;
4839;SDS011;2434;48.486;7.964;2023-02-01T07:07:29;5.53;;;3.70;;
4839;SDS011;2434;48.486;7.964;2023-02-01T07:09:57;5.63;;;3.37;;
4839;SDS011;2434;48.486;7.964;2023-02-01T07:12:26;5.10;;;3.50;;
4839;SDS011;2434;48.486;7.964;2023-02-01T07:14:54;6.60;;;3.60;;
4839;SDS011;2434;48.486;7.964;2023-02-01T07:17:23;3.30;;;3.00;;
4839;SDS011;2434;48.486;7.964;2023-02-01T07:19:51;3.70;;;3.40;;
4839;SDS011;2434;48.486;7.964;2023-02-01T07:22:20;5.93;;;3.77;;
4839;SDS011;2434;48.486;7.964;2023-02-01T07:24:48;5.20;;;3.13;;
4839;SDS011;2434;48.486;7.964;2023-02-01T07:27:16;4.70;;;3.10;;
4839;SDS011;2434;48.486;7.964;2023-02-01T07:29:46;5.63;;;3.70;;
4839;SDS011;2434;48.486;7.964;2023-02-01T07:32:14;4.60;;;3.10;;
4839;SDS011;2434;48.486;7.964;2023-02-01T07:34:44;3.97;;;3.40;;
4839;SDS011;2434;48.486;7.964;2023-02-01T07:37:13;5.30;;;3.40;;
4839;SDS011;2434;48.486;7.964;2023-02-01T07:39:41;3.30;;;3.00;;
4839;SDS011;2434;48.486;7.964;2023-02-01T07:42:09;4.40;;;3.20;;
4839;SDS011;2434;48.486;7.964;2023-02-01T07:44:37;3.93;;;2.90;;
4839;SDS011;2434;48.486;7.964;2023-02-01T07:47:06;3.93;;;3.43;;
4839;SDS011;2434;48.486;7.964;2023-02-01T07:49:35;4.30;;;3.50;;
4839;SDS011;2434;48.486;7.964;2023-02-01T07:52:03;4.70;;;3.23;;
4839;SDS011;2434;48.486;7.964;2023-02-01T07:54:31;4.57;;;3.23;;
4839;SDS011;2434;48.486;7.964;2023-02-01T07:56:59;6.50;;;3.17;;
4839;SDS011;2434;48.486;7.964;2023-02-01T07:59:27;4.53;;;3.27;;
4839;SDS011;2434;48.486;7.964;2023-02-01T08:01:55;5.37;;;3.30;;
4839;SDS011;2434;48.486;7.964;2023-02-01T08:04:24;3.67;;;2.70;;
4839;SDS011;2434;48.486;7.964;2023-02-01T08:06:52;5.67;;;2.60;;
4839;SDS011;2434;48.486;7.964;2023-02-01T08:09:20;4.47;;;2.70;;
4839;SDS011;2434;48.486;7.964;2023-02-01T08:11:49;3.70;;;2.80;;
4839;SDS011;2434;48.486;7.964;2023-02-01T08:14:17;4.70;;;3.30;;
4839;SDS011;2434;48.486;7.964;2023-02-01T08:16:45;3.63;;;2.90;;
4839;SDS011;2434;48.486;7.964;2023-02-01T08:19:13;3.90;;;3.17;;
4839;SDS011;2434;48.486;7.964;2023-02-01T08:21:43;3.00;;;2.60;;
4839;SDS011;2434;48.486;7.964;2023-02-01T08:24:12;5.30;;;2.80;;
4839;SDS011;2434;48.486;7.964;2023-02-01T08:26:41;5.00;;;2.70;;
4839;SDS011;2434;48.486;7.964;2023-02-01T08:29:10;7.70;;;3.40;;
4839;SDS011;2434;48.486;7.964;2023-02-01T08:31:38;6.07;;;3.00;;
4839;SDS011;2434;48.486;7.964;2023-02-01T08:34:08;3.20;;;2.63;;
4839;SDS011;2434;48.486;7.964;2023-02-01T08:36:38;6.33;;;3.10;;
4839;SDS011;2434;48.486;7.964;2023-02-01T08:39:09;2.80;;;2.53;;
4839;SDS011;2434;48.486;7.964;2023-02-01T08:41:38;9.00;;;3.17;;
4839;SDS011;2434;48.486;7.964;2023-02-01T08:44:06;8.60;;;2.90;;
4839;SDS011;2434;48.486;7.964;2023-02-01T08:46:34;5.40;;;3.67;;
4839;SDS011;2434;48.486;7.964;2023-02-01T08:49:02;7.03;;;4.27;;
4839;SDS011;2434;48.486;7.964;2023-02-01T08:51:30;13.93;;;4.83;;
4839;SDS011;2434;48.486;7.964;2023-02-01T08:53:58;7.00;;;3.83;;
4839;SDS011;2434;48.486;7.964;2023-02-01T08:56:29;8.40;;;4.00;;
4839;SDS011;2434;48.486;7.964;2023-02-01T08:58:57;5.47;;;3.13;;
4839;SDS011;2434;48.486;7.964;2023-02-01T09:01:27;4.40;;;3.40;;
4839;SDS011;2434;48.486;7.964;2023-02-01T09:03:55;9.80;;;3.87;;
4839;SDS011;2434;48.486;7.964;2023-02-01T09:06:23;7.23;;;4.67;;
4839;SDS011;2434;48.486;7.964;2023-02-01T09:08:52;5.30;;;3.77;;
4839;SDS011;2434;48.486;7.964;2023-02-01T09:11:20;9.23;;;6.80;;
4839;SDS011;2434;48.486;7.964;2023-02-01T09:13:50;5.83;;;3.83;;
4839;SDS011;2434;48.486;7.964;2023-02-01T09:16:18;12.90;;;6.33;;
4839;SDS011;2434;48.486;7.964;2023-02-01T09:18:48;6.80;;;3.97;;
4839;SDS011;2434;48.486;7.964;2023-02-01T09:21:36;4.70;;;3.40;;
4839;SDS011;2434;48.486;7.964;2023-02-01T09:24:04;6.67;;;4.20;;
4839;SDS011;2434;48.486;7.964;2023-02-01T09:26:33;6.37;;;3.80;;
4839;SDS011;2434;48.486;7.964;2023-02-01T09:29:03;9.13;;;2.60;;
4839;SDS011;2434;48.486;7.964;2023-02-01T09:31:32;10.23;;;5.40;;
4839;SDS011;2434;48.486;7.964;2023-02-01T09:34:01;6.23;;;4.00;;
4839;SDS011;2434;48.486;7.964;2023-02-01T09:36:29;6.53;;;3.80;;
4839;SDS011;2434;48.486;7.964;2023-02-01T09:38:57;8.40;;;4.30;;
4839;SDS011;2434;48.486;7.964;2023-02-01T09:41:30;8.53;;;4.70;;
4839;SDS011;2434;48.486;7.964;2023-02-01T09:44:10;5.30;;;3.30;;
4839;SDS011;2434;48.486;7.964;2023-02-01T09:46:45;6.10;;;4.00;;
4839;SDS011;2434;48.486;7.964;2023-02-01T09:49:15;7.10;;;3.83;;
4839;SDS011;2434;48.486;7.964;2023-02-01T09:51:48;11.60;;;3.70;;
4839;SDS011;2434;48.486;7.964;2023-02-01T09:54:19;10.77;;;4.20;;
4839;SDS011;2434;48.486;7.964;2023-02-01T09:56:51;5.70;;;3.70;;
4839;SDS011;2434;48.486;7.964;2023-02-01T09:59:28;8.37;;;4.17;;
4839;SDS011;2434;48.486;7.964;2023-02-01T10:02:01;9.27;;;3.30;;
4839;SDS011;2434;48.486;7.964;2023-02-01T10:04:30;6.47;;;3.67;;
4839;SDS011;2434;48.486;7.964;2023-02-01T10:07:02;7.47;;;4.13;;
4839;SDS011;2434;48.486;7.964;2023-02-01T10:09:47;7.97;;;3.93;;
4839;SDS011;2434;48.486;7.964;2023-02-01T10:15:40;6.30;;;4.13;;
4839;SDS011;2434;48.486;7.964;2023-02-01T10:18:31;6.43;;;3.23;;
4839;SDS011;2434;48.486;7.964;2023-02-01T10:21:09;7.63;;;4.03;;
4839;SDS011;2434;48.486;7.964;2023-02-01T10:23:53;9.40;;;3.70;;
4839;SDS011;2434;48.486;7.964;2023-02-01T10:26:44;6.60;;;3.47;;
4839;SDS011;2434;48.486;7.964;2023-02-01T10:29:14;6.17;;;2.90;;
4839;SDS011;2434;48.486;7.964;2023-02-01T10:31:47;6.77;;;3.40;;
4839;SDS011;2434;48.486;7.964;2023-02-01T10:34:17;6.90;;;3.80;;
4839;SDS011;2434;48.486;7.964;2023-02-01T10:36:55;7.07;;;2.90;;
4839;SDS011;2434;48.486;7.964;2023-02-01T10:39:27;8.83;;;3.93;;
4839;SDS011;2434;48.486;7.964;2023-02-01T10:41:55;5.37;;;3.10;;
4839;SDS011;2434;48.486;7.964;2023-02-01T10:44:25;5.00;;;2.90;;
4839;SDS011;2434;48.486;7.964;2023-02-01T10:46:57;6.33;;;3.03;;
4839;SDS011;2434;48.486;7.964;2023-02-01T10:49:26;9.77;;;4.20;;
4839;SDS011;2434;48.486;7.964;2023-02-01T10:52:02;9.00;;;3.70;;
4839;SDS011;2434;48.486;7.964;2023-02-01T10:54:39;5.73;;;3.73;;
4839;SDS011;2434;48.486;7.964;2023-02-01T10:57:08;6.80;;;3.50;;
4839;SDS011;2434;48.486;7.964;2023-02-01T10:59:37;9.17;;;4.00;;
4839;SDS011;2434;48.486;7.964;2023-02-01T11:02:13;6.00;;;3.63;;
4839;SDS011;2434;48.486;7.964;2023-02-01T11:04:46;11.27;;;4.17;;
4839;SDS011;2434;48.486;7.964;2023-02-01T11:07:16;9.00;;;4.23;;
4839;SDS011;2434;48.486;7.964;2023-02-01T11:09:51;8.67;;;3.23;;
4839;SDS011;2434;48.486;7.964;2023-02-01T11:12:23;6.20;;;3.20;;
4839;SDS011;2434;48.486;7.964;2023-02-01T11:14:57;4.40;;;2.87;;
4839;SDS011;2434;48.486;7.964;2023-02-01T11:17:34;7.30;;;2.70;;
4839;SDS011;2434;48.486;7.964;2023-02-01T11:20:04;6.47;;;2.97;;
4839;SDS011;2434;48.486;7.964;2023-02-01T11:22:45;6.67;;;3.40;;
4839;SDS011;2434;48.486;7.964;2023-02-01T11:25:15;6.77;;;3.40;;
4839;SDS011;2434;48.486;7.964;2023-02-01T11:27:45;6.07;;;3.40;;
4839;SDS011;2434;48.486;7.964;2023-02-01T11:30:22;6.80;;;3.30;;
4839;SDS011;2434;48.486;7.964;2023-02-01T11:33:00;7.20;;;4.00;;
4839;SDS011;2434;48.486;7.964;2023-02-01T11:35:32;8.63;;;3.60;;
4839;SDS011;2434;48.486;7.964;2023-02-01T11:38:10;11.20;;;5.90;;
4839;SDS011;2434;48.486;7.964;2023-02-01T11:40:42;9.40;;;4.03;;
4839;SDS011;2434;48.486;7.964;2023-02-01T11:43:13;8.10;;;4.23;;
4839;SDS011;2434;48.486;7.964;2023-02-01T11:45:53;6.13;;;3.63;;
4839;SDS011;2434;48.486;7.964;2023-02-01T11:48:24;10.10;;;4.77;;
4839;SDS011;2434;48.486;7.964;2023-02-01T11:50:57;12.90;;;6.03;;
4839;SDS011;2434;48.486;7.964;2023-02-01T11:53:43;10.03;;;5.60;;
4839;SDS011;2434;48.486;7.964;2023-02-01T11:56:25;8.73;;;5.30;;
4839;SDS011;2434;48.486;7.964;2023-02-01T11:59:12;7.50;;;3.97;;
4839;SDS011;2434;48.486;7.964;2023-02-01T12:01:54;13.83;;;4.00;;
4839;SDS011;2434;48.486;7.964;2023-02-01T12:04:44;7.50;;;4.97;;
4839;SDS011;2434;48.486;7.964;2023-02-01T12:07:40;8.90;;;4.53;;
4839;SDS011;2434;48.486;7.964;2023-02-01T12:10:23;6.63;;;4.23;;
4839;SDS011;2434;48.486;7.964;2023-02-01T12:13:03;5.73;;;4.20;;
4839;SDS011;2434;48.486;7.964;2023-02-01T12:15:46;15.10;;;5.73;;
4839;SDS011;2434;48.486;7.964;2023-02-01T12:18:31;7.67;;;4.20;;
4839;SDS011;2434;48.486;7.964;2023-02-01T12:21:34;8.73;;;5.27;;
4839;SDS011;2434;48.486;7.964;2023-02-01T12:24:25;7.63;;;4.83;;
4839;SDS011;2434;48.486;7.964;2023-02-01T12:27:31;7.07;;;4.20;;
4839;SDS011;2434;48.486;7.964;2023-02-01T12:30:31;12.97;;;5.50;;
4839;SDS011;2434;48.486;7.964;2023-02-01T12:33:18;11.30;;;4.50;;
4839;SDS011;2434;48.486;7.964;2023-02-01T12:35:59;10.00;;;5.70;;
4839;SDS011;2434;48.486;7.964;2023-02-01T12:38:42;9.40;;;5.47;;
4839;SDS011;2434;48.486;7.964;2023-02-01T12:41:21;14.77;;;4.57;;
4839;SDS011;2434;48.486;7.964;2023-02-01T12:44:27;6.33;;;3.67;;
4839;SDS011;2434;48.486;7.964;2023-02-01T12:47:06;12.17;;;4.60;;
4839;SDS011;2434;48.486;7.964;2023-02-01T12:49:41;14.13;;;4.33;;
4839;SDS011;2434;48.486;7.964;2023-02-01T12:52:18;10.43;;;4.13;;
4839;SDS011;2434;48.486;7.964;2023-02-01T12:54:53;12.10;;;4.03;;
4839;SDS011;2434;48.486;7.964;2023-02-01T12:57:27;14.27;;;3.97;;
4839;SDS011;2434;48.486;7.964;2023-02-01T13:00:01;10.70;;;4.27;;
4839;SDS011;2434;48.486;7.964;2023-02-01T13:02:38;14.43;;;5.27;;
4839;SDS011;2434;48.486;7.964;2023-02-01T13:05:15;16.50;;;6.33;;
4839;SDS011;2434;48.486;7.964;2023-02-01T13:07:46;11.23;;;4.90;;
4839;SDS011;2434;48.486;7.964;2023-02-01T13:10:33;11.30;;;4.40;;
4839;SDS011;2434;48.486;7.964;2023-02-01T13:13:07;13.37;;;4.87;;
4839;SDS011;2434;48.486;7.964;2023-02-01T13:15:40;13.67;;;4.50;;
4839;SDS011;2434;48.486;7.964;2023-02-01T13:18:13;11.30;;;3.97;;
4839;SDS011;2434;48.486;7.964;2023-02-01T13:20:47;9.77;;;3.57;;
4839;SDS011;2434;48.486;7.964;2023-02-01T13:23:21;13.77;;;6.30;;
4839;SDS011;2434;48.486;7.964;2023-02-01T13:25:55;19.43;;;7.93;;
4839;SDS011;2434;48.486;7.964;2023-02-01T13:28:25;12.80;;;5.07;;
4839;SDS011;2434;48.486;7.964;2023-02-01T13:30:59;11.20;;;3.97;;
4839;SDS011;2434;48.486;7.964;2023-02-01T13:33:46;14.83;;;4.57;;
4839;SDS011;2434;48.486;7.964;2023-02-01T13:39:30;15.40;;;3.33;;
4839;SDS011;2434;48.486;7.964;2023-02-01T13:42:25;10.23;;;3.80;;
4839;SDS011;2434;48.486;7.964;2023-02-01T13:44:56;11.30;;;3.57;;
4839;SDS011;2434;48.486;7.964;2023-02-01T13:47:28;16.90;;;4.27;;
4839;SDS011;2434;48.486;7.964;2023-02-01T13:49:59;10.87;;;3.70;;
4839;SDS011;2434;48.486;7.964;2023-02-01T13:52:37;13.13;;;4.27;;
4839;SDS011;2434;48.486;7.964;2023-02-01T13:55:15;20.43;;;5.33;;
4839;SDS011;2434;48.486;7.964;2023-02-01T13:57:58;11.23;;;3.40;;
4839;SDS011;2434;48.486;7.964;2023-02-01T14:00:42;17.90;;;4.70;;
4839;SDS011;2434;48.486;7.964;2023-02-01T14:03:12;11.67;;;4.73;;
4839;SDS011;2434;48.486;7.964;2023-02-01T14:05:56;22.07;;;4.90;;
4839;SDS011;2434;48.486;7.964;2023-02-01T14:08:38;13.57;;;4.20;;
4839;SDS011;2434;48.486;7.964;2023-02-01T14:14:37;17.10;;;4.23;;
4839;SDS011;2434;48.486;7.964;2023-02-01T14:23:25;16.93;;;3.60;;
4839;SDS011;2434;48.486;7.964;2023-02-01T14:26:02;12.43;;;3.20;;
4839;SDS011;2434;48.486;7.964;2023-02-01T14:28:38;16.67;;;5.13;;
4839;SDS011;2434;48.486;7.964;2023-02-01T14:31:15;14.17;;;4.47;;
4839;SDS011;2434;48.486;7.964;2023-02-01T14:34:11;13.57;;;3.40;;
4839;SDS011;2434;48.486;7.964;2023-02-01T14:36:44;10.23;;;4.30;;
4839;SDS011;2434;48.486;7.964;2023-02-01T14:42:19;18.90;;;4.40;;
4839;SDS011;2434;48.486;7.964;2023-02-01T14:44:52;11.13;;;3.63;;
4839;SDS011;2434;48.486;7.964;2023-02-01T14:47:30;14.73;;;3.90;;
4839;SDS011;2434;48.486;7.964;2023-02-01T14:50:12;17.90;;;4.57;;
4839;SDS011;2434;48.486;7.964;2023-02-01T14:53:11;9.47;;;4.07;;
4839;SDS011;2434;48.486;7.964;2023-02-01T14:55:47;8.13;;;3.57;;
4839;SDS011;2434;48.486;7.964;2023-02-01T14:58:23;18.17;;;3.77;;
4839;SDS011;2434;48.486;7.964;2023-02-01T15:01:01;15.53;;;4.40;;
4839;SDS011;2434;48.486;7.964;2023-02-01T15:03:38;7.90;;;3.13;;
4839;SDS011;2434;48.486;7.964;2023-02-01T15:06:22;9.20;;;3.70;;
4839;SDS011;2434;48.486;7.964;2023-02-01T15:08:54;13.03;;;3.50;;
4839;SDS011;2434;48.486;7.964;2023-02-01T15:11:25;13.00;;;4.00;;
4839;SDS011;2434;48.486;7.964;2023-02-01T15:13:53;17.67;;;2.87;;
4839;SDS011;2434;48.486;7.964;2023-02-01T15:16:23;17.43;;;2.93;;
4839;SDS011;2434;48.486;7.964;2023-02-01T15:19:12;14.70;;;3.83;;
4839;SDS011;2434;48.486;7.964;2023-02-01T15:21:42;8.80;;;3.23;;
4839;SDS011;2434;48.486;7.964;2023-02-01T15:24:13;17.30;;;4.33;;
4839;SDS011;2434;48.486;7.964;2023-02-01T15:26:45;16.97;;;3.87;;
4839;SDS011;2434;48.486;7.964;2023-02-01T15:29:14;13.83;;;4.37;;
4839;SDS011;2434;48.486;7.964;2023-02-01T15:31:43;16.07;;;3.83;;
4839;SDS011;2434;48.486;7.964;2023-02-01T15:34:14;9.17;;;3.10;;
4839;SDS011;2434;48.486;7.964;2023-02-01T15:36:43;19.23;;;4.60;;
4839;SDS011;2434;48.486;7.964;2023-02-01T15:39:27;15.30;;;4.47;;
4839;SDS011;2434;48.486;7.964;2023-02-01T15:41:58;15.87;;;3.60;;
4839;SDS011;2434;48.486;7.964;2023-02-01T15:44:30;10.17;;;3.90;;
4839;SDS011;2434;48.486;7.964;2023-02-01T15:47:05;11.70;;;3.30;;
4839;SDS011;2434;48.486;7.964;2023-02-01T15:49:38;16.13;;;3.70;;
4839;SDS011;2434;48.486;7.964;2023-02-01T15:52:13;19.73;;;3.80;;
4839;SDS011;2434;48.486;7.964;2023-02-01T15:54:49;18.80;;;3.97;;
4839;SDS011;2434;48.486;7.964;2023-02-01T15:57:20;12.63;;;3.83;;
4839;SDS011;2434;48.486;7.964;2023-02-01T15:59:57;10.97;;;3.80;;
4839;SDS011;2434;48.486;7.964;2023-02-01T16:02:40;11.40;;;3.33;;
4839;SDS011;2434;48.486;7.964;2023-02-01T16:05:27;17.20;;;3.50;;
4839;SDS011;2434;48.486;7.964;2023-02-01T16:08:00;10.87;;;3.03;;